createdAt,value
2022-10-29T00:02:10.255Z,96260.41
2022-10-29T00:04:38.641Z,96253.63
2022-10-29T00:07:08.510Z,96259.13
2022-10-29T00:09:36.949Z,96251.03
2022-10-29T00:12:05.474Z,96251.97
2022-10-29T00:14:33.850Z,96227.53
2022-10-29T00:17:02.257Z,96249.69
2022-10-29T00:19:30.594Z,96242.69
2022-10-29T00:21:59.001Z,96253.88
2022-10-29T00:24:28.837Z,96249.31
2022-10-29T00:26:57.218Z,96258.41
2022-10-29T00:29:25.682Z,96256.53
2022-10-29T00:31:54.456Z,96266.38
2022-10-29T00:34:23.008Z,96260.41
2022-10-29T00:36:51.445Z,96273.19
2022-10-29T00:39:20.295Z,96267.53
2022-10-29T00:41:50.114Z,96271.03
2022-10-29T00:44:29.712Z,96265.59
2022-10-29T00:47:03.921Z,96258.03
2022-10-29T00:49:34.533Z,96255.63
2022-10-29T00:52:04.650Z,96234.53
2022-10-29T00:54:35.397Z,96240.16
2022-10-29T00:57:11.823Z,96252.34
2022-10-29T00:59:41.372Z,96245.00
2022-10-29T01:02:10.038Z,96240.38
2022-10-29T01:04:40.461Z,96241.41
2022-10-29T01:07:09.865Z,96238.09
2022-10-29T01:09:38.274Z,96239.22
2022-10-29T01:12:34.035Z,96236.19
2022-10-29T01:15:10.022Z,96225.69
2022-10-29T01:17:50.484Z,96227.56
2022-10-29T01:20:41.882Z,96225.34
2022-10-29T01:23:30.399Z,96240.06
2022-10-29T01:26:16.880Z,96246.41
2022-10-29T01:29:05.469Z,96252.16
2022-10-29T01:31:38.391Z,96254.63
2022-10-29T01:34:14.546Z,96251.34
2022-10-29T01:36:50.197Z,96214.75
2022-10-29T01:39:27.853Z,96011.03
2022-10-29T01:42:08.018Z,96250.88
2022-10-29T01:44:43.074Z,96249.81
2022-10-29T01:47:16.959Z,96245.19
2022-10-29T01:49:50.024Z,96252.00
2022-10-29T01:52:21.765Z,96256.84
2022-10-29T01:54:50.363Z,96259.56
2022-10-29T01:57:30.354Z,96271.53
2022-10-29T02:00:03.033Z,96228.13
2022-10-29T02:02:48.279Z,96273.72
2022-10-29T02:05:28.478Z,96270.78
2022-10-29T02:08:02.259Z,96270.25
2022-10-29T02:10:37.821Z,96268.91
2022-10-29T02:13:06.553Z,96261.91
2022-10-29T02:15:39.073Z,96261.09
2022-10-29T02:18:09.889Z,96237.69
2022-10-29T02:20:43.037Z,96261.47
2022-10-29T02:23:12.130Z,96197.88
2022-10-29T02:25:40.516Z,96206.75
2022-10-29T02:28:09.083Z,96262.63
2022-10-29T02:30:37.523Z,96264.31
2022-10-29T02:33:05.999Z,96259.25
2022-10-29T02:35:35.741Z,96243.09
2022-10-29T02:38:04.066Z,96264.19
2022-10-29T02:40:32.378Z,96275.81
2022-10-29T02:43:00.726Z,96269.34
2022-10-29T02:45:29.222Z,96256.72
2022-10-29T02:47:57.874Z,96272.63
2022-10-29T02:50:26.836Z,96237.03
2022-10-29T02:52:56.704Z,96251.28
2022-10-29T02:55:25.092Z,96251.28
2022-10-29T02:57:53.588Z,96253.19
2022-10-29T03:00:22.241Z,96217.00
2022-10-29T03:02:53.004Z,96247.75
2022-10-29T03:05:21.771Z,96255.09
2022-10-29T03:07:50.149Z,96263.53
2022-10-29T03:10:20.056Z,96265.69
2022-10-29T03:12:48.374Z,96261.63
2022-10-29T03:15:16.925Z,96251.59
2022-10-29T03:17:45.319Z,96254.06
2022-10-29T03:20:13.831Z,96253.56
2022-10-29T03:22:42.206Z,96249.72
2022-10-29T03:25:11.507Z,96249.50
2022-10-29T03:27:44.515Z,96185.25
2022-10-29T03:30:15.515Z,96250.84
2022-10-29T03:32:44.339Z,96247.31
2022-10-29T03:35:14.208Z,96245.69
2022-10-29T03:37:42.705Z,96241.06
2022-10-29T03:40:11.899Z,96239.44
2022-10-29T03:42:40.523Z,96241.13
2022-10-29T03:45:12.364Z,96231.94
2022-10-29T03:47:40.811Z,96240.31
2022-10-29T03:50:10.585Z,96243.84
2022-10-29T03:52:39.016Z,96242.78
2022-10-29T03:55:08.586Z,96219.66
2022-10-29T03:57:37.154Z,96238.78
2022-10-29T04:00:06.484Z,96245.84
2022-10-29T04:02:36.442Z,96249.13
2022-10-29T04:05:05.096Z,96249.13
2022-10-29T04:07:33.876Z,96238.28
2022-10-29T04:10:02.555Z,96242.84
2022-10-29T04:12:30.915Z,96232.28
2022-10-29T04:14:59.295Z,96238.19
2022-10-29T04:17:27.716Z,96239.22
2022-10-29T04:19:57.547Z,96203.34
2022-10-29T04:28:42.400Z,96246.81
2022-10-29T04:30:52.383Z,96214.44
2022-10-29T04:33:21.181Z,96244.41
2022-10-29T04:35:54.938Z,96242.78
2022-10-29T04:38:23.416Z,96252.66
2022-10-29T04:40:52.250Z,96246.94
2022-10-29T04:43:20.645Z,96245.94
2022-10-29T04:45:53.082Z,96262.09
2022-10-29T04:48:21.839Z,96271.34
2022-10-29T04:50:50.715Z,96266.50
2022-10-29T04:53:21.900Z,96199.00
2022-10-29T04:55:50.332Z,96256.84
2022-10-29T04:58:20.575Z,96267.09
2022-10-29T05:00:49.302Z,96267.13
2022-10-29T05:03:17.688Z,96269.31
2022-10-29T05:05:46.025Z,96189.66
2022-10-29T05:08:15.524Z,96258.47
2022-10-29T05:10:45.370Z,96265.78
2022-10-29T05:13:14.218Z,96259.56
2022-10-29T05:15:43.377Z,96258.75
2022-10-29T05:18:12.068Z,96256.31
2022-10-29T05:20:40.498Z,96250.91
2022-10-29T05:23:11.429Z,96247.13
2022-10-29T05:25:41.469Z,96254.13
2022-10-29T05:28:13.735Z,96253.59
2022-10-29T05:30:44.109Z,96219.81
2022-10-29T05:33:13.953Z,96250.88
2022-10-29T05:35:42.865Z,96248.16
2022-10-29T05:38:12.425Z,96251.44
2022-10-29T05:40:42.831Z,96211.22
2022-10-29T05:43:12.890Z,96243.38
2022-10-29T05:45:41.688Z,96251.47
2022-10-29T05:50:41.296Z,96248.78
2022-10-29T05:53:12.317Z,96235.91
2022-10-29T05:55:40.783Z,96259.09
2022-10-29T05:58:13.527Z,96258.03
2022-10-29T06:00:45.136Z,96260.75
2022-10-29T06:03:16.176Z,96252.38
2022-10-29T06:05:45.074Z,96260.50
2022-10-29T06:08:13.438Z,96253.50
2022-10-29T06:10:42.153Z,96210.25
2022-10-29T06:13:16.618Z,96258.91
2022-10-29T06:15:45.987Z,96253.78
2022-10-29T06:18:14.365Z,96255.94
2022-10-29T06:20:43.770Z,96253.78
2022-10-29T06:23:13.048Z,96252.69
2022-10-29T06:25:41.501Z,96251.34
2022-10-29T06:28:12.294Z,96242.38
2022-10-29T06:30:43.059Z,96252.06
2022-10-29T06:33:11.530Z,96252.03
2022-10-29T06:35:40.004Z,96169.66
2022-10-29T06:38:11.160Z,96207.72
2022-10-29T06:40:41.033Z,96239.53
2022-10-29T06:43:13.221Z,96243.81
2022-10-29T06:45:43.161Z,96243.00
2022-10-29T06:48:11.558Z,96245.94
2022-10-29T06:50:39.988Z,96236.38
2022-10-29T06:53:11.221Z,96240.94
2022-10-29T06:55:39.637Z,96239.25
2022-10-29T06:58:09.423Z,96234.38
2022-10-29T07:00:38.283Z,96237.56
2022-10-29T07:03:08.346Z,96238.31
2022-10-29T07:05:36.800Z,96245.53
2022-10-29T07:08:05.475Z,96226.03
2022-10-29T07:10:34.817Z,96235.53
2022-10-29T07:13:03.557Z,96232.19
2022-10-29T07:15:32.781Z,96231.03
2022-10-29T07:18:02.850Z,96232.03
2022-10-29T07:20:34.724Z,96237.38
2022-10-29T07:23:05.650Z,96248.19
2022-10-29T07:25:35.220Z,96241.38
2022-10-29T07:28:07.949Z,96244.09
2022-10-29T07:30:38.024Z,96244.88
2022-10-29T07:33:06.418Z,96238.84
2022-10-29T07:35:37.127Z,96240.19
2022-10-29T07:38:10.864Z,96250.19
2022-10-29T07:40:41.036Z,96254.00
2022-10-29T07:43:10.688Z,96253.41
2022-10-29T07:45:39.167Z,96253.97
2022-10-29T07:48:09.603Z,96255.56
2022-10-29T07:50:40.157Z,96258.25
2022-10-29T07:53:09.251Z,96254.91
2022-10-29T07:55:37.761Z,96254.34
2022-10-29T07:58:08.336Z,96253.75
2022-10-29T08:00:38.862Z,96262.72
2022-10-29T08:03:07.893Z,96258.66
2022-10-29T08:05:36.494Z,96251.75
2022-10-29T08:08:08.256Z,96232.97
2022-10-29T08:10:37.772Z,96257.25
2022-10-29T08:13:07.759Z,96259.28
2022-10-29T08:15:36.785Z,96231.03
2022-10-29T08:18:10.846Z,96253.28
2022-10-29T08:20:39.126Z,96218.88
2022-10-29T08:23:09.718Z,96258.06
2022-10-29T08:25:41.776Z,96247.97
2022-10-29T08:28:12.875Z,96241.81
2022-10-29T08:30:41.754Z,96250.84
2022-10-29T08:33:11.336Z,96245.69
2022-10-29T08:35:39.739Z,96255.91
2022-10-29T08:38:09.651Z,96256.78
2022-10-29T08:40:46.180Z,96260.06
2022-10-29T08:43:49.222Z,96231.19
2022-10-29T08:46:22.464Z,96254.66
2022-10-29T08:48:56.497Z,96219.72
2022-10-29T08:51:28.316Z,96226.97
2022-10-29T08:56:51.828Z,96251.63
2022-10-29T08:59:23.551Z,96239.97
2022-10-29T09:01:53.866Z,96256.91
2022-10-29T09:04:26.202Z,96255.53
2022-10-29T09:07:36.027Z,96244.69
2022-10-29T09:10:13.166Z,96255.97
2022-10-29T09:13:05.220Z,96270.13
2022-10-29T09:15:57.913Z,96253.06
2022-10-29T09:18:39.891Z,96252.53
2022-10-29T09:21:19.877Z,96251.75
2022-10-29T09:24:10.928Z,96261.47
2022-10-29T09:26:50.685Z,96260.03
2022-10-29T09:29:47.998Z,96257.63
2022-10-29T09:32:24.470Z,96221.47
2022-10-29T09:34:56.807Z,96229.47
2022-10-29T09:37:34.207Z,96249.34
2022-10-29T09:40:09.088Z,96240.78
2022-10-29T09:42:43.104Z,96234.03
2022-10-29T09:45:17.749Z,96237.84
2022-10-29T09:47:56.131Z,96238.47
2022-10-29T09:50:33.145Z,96241.56
2022-10-29T09:53:01.809Z,96221.50
2022-10-29T09:55:44.783Z,96233.81
2022-10-29T09:58:21.857Z,96219.19
2022-10-29T10:00:50.682Z,96228.34
2022-10-29T10:03:24.409Z,96223.63
2022-10-29T10:06:02.001Z,96219.28
2022-10-29T10:08:31.131Z,96210.84
2022-10-29T10:11:02.135Z,96206.94
2022-10-29T10:13:34.234Z,96200.28
2022-10-29T10:16:05.549Z,96202.91
2022-10-29T10:18:42.234Z,96195.22
2022-10-29T10:21:13.102Z,96207.34
2022-10-29T10:23:45.105Z,96198.56
2022-10-29T10:26:30.927Z,96204.63
2022-10-29T10:29:11.360Z,96198.03
2022-10-29T10:31:39.872Z,96208.72
2022-10-29T10:34:17.281Z,96203.03
2022-10-29T10:36:50.618Z,96192.66
2022-10-29T10:39:30.030Z,96166.97
2022-10-29T10:42:00.875Z,96202.88
2022-10-29T10:44:31.677Z,96176.38
2022-10-29T10:47:06.908Z,96196.59
2022-10-29T10:49:37.984Z,96203.31
2022-10-29T10:52:16.709Z,96203.97
2022-10-29T10:54:48.656Z,96203.94
2022-10-29T10:57:24.066Z,96193.19
2022-10-29T11:00:01.655Z,96204.09
2022-10-29T11:02:43.382Z,96200.34
2022-10-29T11:05:19.505Z,96196.41
2022-10-29T11:07:54.082Z,96199.78
2022-10-29T11:10:29.092Z,96195.75
2022-10-29T11:13:00.115Z,96201.69
2022-10-29T11:15:38.608Z,96181.09
2022-10-29T11:21:03.461Z,96188.69
2022-10-29T11:23:41.660Z,96152.91
2022-10-29T11:26:16.285Z,96184.13
2022-10-29T11:28:51.705Z,96187.38
2022-10-29T11:31:31.031Z,96183.06
2022-10-29T11:34:09.517Z,96170.69
2022-10-29T11:36:44.554Z,96151.94
2022-10-29T11:39:20.256Z,96178.19
2022-10-29T11:41:53.746Z,96177.69
2022-10-29T11:44:22.169Z,96158.13
2022-10-29T11:47:06.745Z,96170.63
2022-10-29T11:49:55.917Z,96170.28
2022-10-29T11:52:35.582Z,96169.25
2022-10-29T11:55:21.198Z,96160.94
2022-10-29T11:57:54.954Z,96156.13
2022-10-29T12:00:25.223Z,96118.94
2022-10-29T12:03:19.561Z,96151.22
2022-10-29T12:05:57.655Z,96155.91
2022-10-29T12:08:41.205Z,96156.25
2022-10-29T12:11:21.058Z,96151.56
2022-10-29T12:13:59.186Z,96152.38
2022-10-29T12:16:44.081Z,96125.44
2022-10-29T12:19:27.179Z,96145.13
2022-10-29T12:22:03.802Z,96149.09
2022-10-29T12:24:55.302Z,96142.31
2022-10-29T12:27:32.920Z,96148.69
2022-10-29T12:30:04.008Z,96144.22
2022-10-29T12:32:39.850Z,96131.88
2022-10-29T12:35:17.269Z,96152.41
2022-10-29T12:37:51.661Z,96127.22
2022-10-29T12:40:23.462Z,96134.63
2022-10-29T12:42:52.793Z,96131.75
2022-10-29T12:45:43.409Z,96107.31
2022-10-29T12:48:23.069Z,96119.38
2022-10-29T12:51:01.527Z,96115.03
2022-10-29T12:53:36.937Z,96131.53
2022-10-29T12:56:08.377Z,96130.75
2022-10-29T12:58:50.045Z,96120.47
2022-10-29T13:02:11.254Z,96118.25
2022-10-29T13:04:40.313Z,96112.44
2022-10-29T13:07:24.537Z,96091.03
2022-10-29T13:10:32.745Z,96121.78
2022-10-29T13:13:05.738Z,96108.59
2022-10-29T13:15:38.643Z,96117.28
2022-10-29T13:18:18.240Z,96124.53
2022-10-29T13:20:50.381Z,96128.22
2022-10-29T13:23:37.782Z,96107.78
2022-10-29T13:26:07.513Z,96112.28
2022-10-29T13:28:50.804Z,96083.47
2022-10-29T13:31:47.375Z,96099.25
2022-10-29T13:34:49.054Z,96105.53
2022-10-29T13:38:03.638Z,96100.56
2022-10-29T13:40:59.066Z,96102.00
2022-10-29T13:43:28.346Z,96103.59
2022-10-29T13:46:27.869Z,96106.19
2022-10-29T13:48:59.637Z,96091.56
2022-10-29T13:51:38.507Z,96104.72
2022-10-29T13:54:12.529Z,96091.69
2022-10-29T13:56:48.251Z,96093.16
2022-10-29T13:59:24.764Z,96091.84
2022-10-29T14:02:02.601Z,96098.78
2022-10-29T14:04:37.164Z,96073.69
2022-10-29T14:07:11.330Z,96090.09
2022-10-29T14:09:45.361Z,96097.81
2022-10-29T14:12:21.165Z,96061.59
2022-10-29T14:14:56.750Z,96100.06
2022-10-29T14:17:25.321Z,96113.25
2022-10-29T14:19:54.746Z,96110.69
2022-10-29T14:22:38.413Z,96088.63
2022-10-29T14:25:29.165Z,96115.66
2022-10-29T14:28:19.382Z,96117.44
2022-10-29T14:30:49.051Z,96105.16
2022-10-29T14:33:25.040Z,96090.81
2022-10-29T14:35:56.717Z,96129.94
2022-10-29T14:38:33.758Z,96126.91
2022-10-29T14:41:02.405Z,96122.91
2022-10-29T14:43:32.636Z,96119.66
2022-10-29T14:46:13.960Z,96111.63
2022-10-29T14:48:53.678Z,96078.09
2022-10-29T14:51:22.992Z,96123.34
2022-10-29T14:53:58.928Z,96101.38
2022-10-29T14:56:36.619Z,96127.94
2022-10-29T14:59:15.762Z,96121.66
2022-10-29T15:01:56.739Z,96108.47
2022-10-29T15:04:31.274Z,96120.34
2022-10-29T15:07:18.228Z,96100.75
2022-10-29T15:09:47.880Z,96105.88
2022-10-29T15:12:22.350Z,96116.63
2022-10-29T15:14:53.558Z,96112.75
2022-10-29T15:17:24.814Z,96085.16
2022-10-29T15:19:56.905Z,96107.25
2022-10-29T15:22:30.721Z,96101.91
2022-10-29T15:25:00.109Z,96109.13
2022-10-29T15:27:28.858Z,96094.16
2022-10-29T15:29:59.846Z,96104.41
2022-10-29T15:32:31.466Z,96095.56
2022-10-29T15:35:00.878Z,96103.09
2022-10-29T15:37:44.087Z,96104.31
2022-10-29T15:40:15.037Z,96105.06
2022-10-29T15:42:45.488Z,96104.59
2022-10-29T15:45:26.078Z,96105.22
2022-10-29T15:47:58.396Z,96106.94
2022-10-29T15:50:32.717Z,96085.50
2022-10-29T15:53:05.968Z,96107.38
2022-10-29T15:55:36.493Z,96112.66
2022-10-29T16:00:35.600Z,96111.66
2022-10-29T16:03:15.349Z,96118.13
2022-10-29T16:05:47.187Z,96118.22
2022-10-29T16:08:30.349Z,96112.91
2022-10-29T16:11:00.292Z,96106.97
2022-10-29T16:13:30.641Z,96079.56
2022-10-29T16:16:00.460Z,96106.44
2022-10-29T16:18:29.586Z,96098.41
2022-10-29T16:21:00.682Z,96072.56
2022-10-29T16:23:29.190Z,96106.38
2022-10-29T16:25:57.498Z,96107.69
2022-10-29T16:28:25.970Z,96096.00
2022-10-29T16:30:56.259Z,96102.88
2022-10-29T16:33:26.315Z,96000.47
2022-10-29T16:35:54.665Z,96103.72
2022-10-29T16:38:22.982Z,96101.13
2022-10-29T16:40:53.014Z,96098.03
2022-10-29T16:43:21.750Z,96110.19
2022-10-29T16:45:50.205Z,96108.34
2022-10-29T16:48:18.597Z,96108.75
2022-10-29T16:50:48.708Z,96107.75
2022-10-29T16:53:17.057Z,96111.09
2022-10-29T16:55:45.459Z,96014.94
2022-10-29T16:58:15.135Z,96109.19
2022-10-29T17:00:43.817Z,96109.31
2022-10-29T17:03:14.041Z,96101.13
2022-10-29T17:05:44.597Z,96111.72
2022-10-29T17:08:15.533Z,96112.59
2022-10-29T17:10:43.806Z,96095.25
2022-10-29T17:13:12.324Z,96115.88
2022-10-29T17:15:41.674Z,96118.91
2022-10-29T17:18:10.538Z,96122.53
2022-10-29T17:20:38.907Z,96132.41
2022-10-29T17:23:07.406Z,96137.88
2022-10-29T17:25:37.105Z,96088.81
2022-10-29T17:28:05.541Z,96114.72
2022-10-29T17:30:34.941Z,96139.94
2022-10-29T17:33:03.280Z,96141.38
2022-10-29T17:35:31.637Z,96134.22
2022-10-29T17:38:00.143Z,96148.84
2022-10-29T17:40:28.418Z,96148.44
2022-10-29T17:42:59.030Z,96148.22
2022-10-29T17:45:27.704Z,96157.81
2022-10-29T17:47:57.381Z,96151.88
2022-10-29T17:50:26.655Z,96161.97
2022-10-29T17:52:55.125Z,96132.53
2022-10-29T17:55:23.513Z,96162.38
2022-10-29T17:57:51.919Z,96168.94
2022-10-29T18:00:22.248Z,96165.69
2022-10-29T18:02:51.236Z,96165.81
2022-10-29T18:05:20.092Z,96168.03
2022-10-29T18:07:48.728Z,96168.13
2022-10-29T18:10:17.400Z,96166.03
2022-10-29T18:12:45.756Z,96159.56
2022-10-29T18:15:14.182Z,96156.38
2022-10-29T18:17:44.034Z,96154.88
2022-10-29T18:20:13.037Z,96158.19
2022-10-29T18:22:41.797Z,96156.06
2022-10-29T18:25:11.054Z,96155.56
2022-10-29T18:27:41.515Z,96003.84
2022-10-29T18:30:11.279Z,96154.66
2022-10-29T18:32:39.738Z,96151.44
2022-10-29T18:35:10.958Z,96152.25
2022-10-29T18:37:39.445Z,96147.69
2022-10-29T18:40:08.965Z,96153.44
2022-10-29T18:42:37.640Z,96143.75
2022-10-29T18:45:07.073Z,96142.72
2022-10-29T18:47:35.601Z,95923.09
2022-10-29T18:50:04.137Z,96146.94
2022-10-29T18:52:34.674Z,96124.72
2022-10-29T18:55:03.283Z,96129.94
2022-10-29T18:57:32.560Z,96096.22
2022-10-29T19:00:01.062Z,96141.78
2022-10-29T19:02:32.174Z,96141.88
2022-10-29T19:05:01.662Z,96138.41
2022-10-29T19:07:32.306Z,96135.47
2022-10-29T19:10:03.520Z,96138.78
2022-10-29T19:12:33.351Z,96150.25
2022-10-29T19:15:03.349Z,96127.97
2022-10-29T19:17:33.173Z,96139.13
2022-10-29T19:20:03.482Z,96133.47
2022-10-29T19:22:33.771Z,96131.66
2022-10-29T19:25:05.262Z,96132.53
2022-10-29T19:27:35.828Z,96101.13
2022-10-29T19:30:05.796Z,96090.63
2022-10-29T19:32:36.371Z,96121.31
2022-10-29T19:35:06.239Z,96122.50
2022-10-29T19:37:36.353Z,96114.41
2022-10-29T19:40:08.763Z,96105.75
2022-10-29T19:42:38.577Z,96109.06
2022-10-29T19:45:09.310Z,96105.31
2022-10-29T19:47:39.019Z,96103.72
2022-10-29T19:50:10.426Z,96110.53
2022-10-29T19:52:40.533Z,96083.06
2022-10-29T19:55:12.958Z,96103.25
2022-10-29T19:57:42.683Z,96102.16
2022-10-29T20:00:16.803Z,96102.22
2022-10-29T20:02:48.408Z,96099.97
2022-10-29T20:05:18.341Z,96105.69
2022-10-29T20:07:49.816Z,96108.09
2022-10-29T20:10:21.212Z,96077.44
2022-10-29T20:12:51.342Z,96107.00
2022-10-29T20:15:21.090Z,96112.94
2022-10-29T20:17:51.327Z,96109.94
2022-10-29T20:20:21.138Z,96110.16
2022-10-29T20:22:52.819Z,96100.91
2022-10-29T20:25:25.338Z,96095.16
2022-10-29T20:27:54.984Z,96103.03
2022-10-29T20:30:24.839Z,96097.53
2022-10-29T20:32:54.529Z,96104.06
2022-10-29T20:35:24.415Z,96100.78
2022-10-29T20:37:54.369Z,96097.25
2022-10-29T20:40:25.581Z,96098.56
2022-10-29T20:42:55.356Z,96095.84
2022-10-29T20:45:25.136Z,96087.91
2022-10-29T20:47:54.937Z,96088.50
2022-10-29T20:50:26.871Z,96084.97
2022-10-29T20:52:56.834Z,96082.53
2022-10-29T20:55:28.030Z,96095.34
2022-10-29T20:57:58.252Z,96091.00
2022-10-29T21:00:28.216Z,96011.94
2022-10-29T21:02:58.005Z,96088.38
2022-10-29T21:05:27.657Z,96093.94
2022-10-29T21:07:57.971Z,96082.25
2022-10-29T21:10:28.364Z,96037.25
2022-10-29T21:12:57.808Z,96078.41
2022-10-29T21:15:27.274Z,96082.25
2022-10-29T21:17:56.658Z,96078.09
2022-10-29T21:20:26.025Z,96081.75
2022-10-29T21:22:55.967Z,96087.09
2022-10-29T21:25:24.539Z,96090.44
2022-10-29T21:27:58.150Z,96054.56
2022-10-29T21:30:28.432Z,96079.47
2022-10-29T21:32:58.300Z,96083.13
2022-10-29T21:35:28.125Z,96064.47
2022-10-29T21:37:57.990Z,96089.91
2022-10-29T21:40:28.059Z,96067.03
2022-10-29T21:42:59.859Z,96084.50
2022-10-29T21:45:28.550Z,96081.44
2022-10-29T21:47:56.971Z,96078.66
2022-10-29T21:50:25.397Z,96049.22
2022-10-29T21:52:54.987Z,96077.56
2022-10-29T21:55:23.899Z,96068.88
2022-10-29T21:57:52.647Z,96069.78
2022-10-29T22:00:23.333Z,96074.31
2022-10-29T22:02:51.774Z,96066.53
2022-10-29T22:05:20.185Z,96068.59
2022-10-29T22:07:48.702Z,96036.81
2022-10-29T22:10:17.174Z,96069.22
2022-10-29T22:12:45.535Z,96063.16
2022-10-29T22:15:13.926Z,96056.19
2022-10-29T22:17:44.109Z,96062.94
2022-10-29T22:20:13.591Z,95862.63
2022-10-29T22:22:41.998Z,96060.13
2022-10-29T22:25:11.005Z,96061.03
2022-10-29T22:27:39.408Z,96051.81
2022-10-29T22:30:08.411Z,96052.44
2022-10-29T22:32:36.897Z,96053.66
2022-10-29T22:35:07.169Z,96053.16
2022-10-29T22:37:35.807Z,96059.50
2022-10-29T22:40:04.429Z,96058.19
2022-10-29T22:42:32.815Z,96054.47
2022-10-29T22:45:01.690Z,96051.22
2022-10-29T22:47:30.063Z,96011.63
2022-10-29T22:49:59.626Z,96047.19
2022-10-29T22:52:29.588Z,96042.25
2022-10-29T22:54:58.085Z,96034.91
2022-10-29T22:57:26.895Z,96040.97
2022-10-29T22:59:55.193Z,96037.44
2022-10-29T23:02:23.773Z,96035.59
2022-10-29T23:04:52.563Z,96042.34
2022-10-29T23:07:21.712Z,96044.56
2022-10-29T23:09:51.546Z,96039.13
2022-10-29T23:12:19.973Z,96035.81
2022-10-29T23:14:48.346Z,96030.25
2022-10-29T23:17:19.759Z,96036.00
2022-10-29T23:19:48.155Z,96000.84
2022-10-29T23:22:16.681Z,96032.38
2022-10-29T23:24:45.196Z,96029.16
2022-10-29T23:27:14.995Z,96024.81
2022-10-29T23:29:43.758Z,96028.84
2022-10-29T23:32:12.284Z,96020.97
2022-10-29T23:34:40.899Z,96018.06
2022-10-29T23:37:10.137Z,96019.97
2022-10-29T23:39:39.221Z,96018.97
2022-10-29T23:42:07.560Z,96021.19
2022-10-29T23:44:37.449Z,96011.94
2022-10-29T23:47:05.863Z,96014.88
2022-10-29T23:49:34.230Z,96012.75
2022-10-29T23:52:02.624Z,96007.91
2022-10-29T23:54:31.103Z,95992.00
2022-10-29T23:56:59.421Z,96004.59
2022-10-29T23:59:27.788Z,96001.44
